Time;durP1;ratioP1;P1;durP2;ratioP2;P2;SDS_P1;SDS_P2;PMS_P1;PMS_P2;Temp;Humidity;BMP_temperature;BMP_pressure;BME280_temperature;BME280_humidity;BME280_pressure;Samples;Min_cycle;Max_cycle;Signal;HPM_P1;HPM_P2
2022/03/01 00:00:32;;;;;;;14.32;9.40;;;;;;;5.33;47.60;101943.38;4174704;28;20068;-61
2022/03/01 00:02:35;;;;;;;13.68;9.30;;;;;;;5.31;47.58;101942.41;4163405;28;20480;-60
2022/03/01 00:04:38;;;;;;;15.05;9.32;;;;;;;5.31;47.37;101950.13;4164356;28;20042;-60
2022/03/01 00:06:41;;;;;;;13.85;8.93;;;;;;;5.29;47.59;101959.50;4173030;28;20525;-61
2022/03/01 00:08:43;;;;;;;15.35;9.00;;;;;;;5.21;46.28;101959.91;4177650;28;20048;-61
2022/03/01 00:10:46;;;;;;;11.65;8.00;;;;;;;5.14;46.72;101954.28;4180058;28;20033;-60
2022/03/01 00:12:49;;;;;;;15.07;9.63;;;;;;;5.14;46.37;101959.44;4178014;28;20061;-61
2022/03/01 00:14:52;;;;;;;13.48;8.88;;;;;;;5.19;45.89;101963.19;4163867;28;20446;-61
2022/03/01 00:16:56;;;;;;;16.83;10.10;;;;;;;5.38;45.82;101967.75;4170099;28;20407;-60
2022/03/01 00:18:59;;;;;;;14.43;8.70;;;;;;;5.28;45.72;101970.59;4179095;28;20037;-60
2022/03/01 00:21:02;;;;;;;13.48;8.32;;;;;;;5.22;45.79;101966.81;4170070;28;20045;-60
2022/03/01 00:23:04;;;;;;;13.27;9.07;;;;;;;5.24;45.74;101970.41;4166869;28;20033;-60
2022/03/01 00:25:09;;;;;;;15.82;8.70;;;;;;;5.22;45.26;101974.56;4180262;28;20068;-60
2022/03/01 00:27:12;;;;;;;14.27;9.10;;;;;;;5.24;45.15;101973.00;4170992;28;20071;-61
2022/03/01 00:29:15;;;;;;;13.25;8.35;;;;;;;5.24;45.02;101973.00;4162583;28;20049;-61
2022/03/01 00:31:18;;;;;;;13.90;8.48;;;;;;;5.29;44.73;101975.84;4172826;28;20064;-60
2022/03/01 00:33:22;;;;;;;12.95;7.57;;;;;;;5.22;44.61;101964.25;4178030;28;20041;-60
2022/03/01 00:35:25;;;;;;;11.25;8.13;;;;;;;5.19;45.67;101969.22;4179283;28;20037;-61
2022/03/01 00:37:28;;;;;;;12.85;8.10;;;;;;;5.12;45.64;101973.94;4178736;28;20123;-60
2022/03/01 00:39:31;;;;;;;13.15;9.15;;;;;;;5.03;46.19;101987.16;4163642;28;20060;-62
2022/03/01 00:41:34;;;;;;;15.63;8.68;;;;;;;4.94;46.82;101979.72;4169151;28;20084;-61
2022/03/01 00:43:36;;;;;;;14.13;8.40;;;;;;;4.85;47.27;101972.31;4166046;28;20044;-61
2022/03/01 00:45:39;;;;;;;15.02;11.02;;;;;;;4.83;47.66;101976.50;4179680;28;20094;-61
2022/03/01 00:47:42;;;;;;;12.95;8.60;;;;;;;4.82;47.98;101986.69;4172073;28;20046;-60
2022/03/01 00:49:46;;;;;;;13.93;8.90;;;;;;;4.86;47.89;101989.56;4163603;28;20176;-61
2022/03/01 00:51:49;;;;;;;14.37;8.20;;;;;;;4.83;48.04;101986.81;4169544;28;20469;-60
2022/03/01 00:53:52;;;;;;;12.20;7.65;;;;;;;4.84;47.90;101980.84;4178880;28;20418;-60
2022/03/01 00:55:54;;;;;;;15.63;8.73;;;;;;;4.85;47.14;101985.22;4181069;28;20063;-61
2022/03/01 00:57:57;;;;;;;12.40;8.38;;;;;;;4.86;47.13;101987.00;4183136;28;20083;-60
2022/03/01 01:00:00;;;;;;;16.75;9.70;;;;;;;4.87;46.32;101985.31;4177863;28;20099;-60
2022/03/01 01:02:03;;;;;;;12.80;8.18;;;;;;;4.79;46.71;101979.69;4173012;28;20395;-61
2022/03/01 01:04:06;;;;;;;15.65;9.85;;;;;;;4.78;46.56;101987.31;4177674;28;20045;-60
2022/03/01 01:06:10;;;;;;;14.52;8.55;;;;;;;4.80;45.94;101983.13;4182024;28;20045;-60
2022/03/01 01:08:12;;;;;;;12.30;8.35;;;;;;;4.81;44.94;101983.22;4170440;28;20095;-60
2022/03/01 01:10:16;;;;;;;14.85;7.97;;;;;;;4.82;44.79;101987.59;4165205;28;20524;-60
2022/03/01 01:12:18;;;;;;;12.18;8.90;;;;;;;4.80;44.43;101984.03;4186716;28;20071;-60
2022/03/01 01:14:21;;;;;;;13.90;9.32;;;;;;;4.77;44.45;101988.97;4170254;28;20084;-60
2022/03/01 01:16:24;;;;;;;12.05;7.75;;;;;;;4.71;44.44;101988.59;4174221;28;20529;-60
2022/03/01 01:18:27;;;;;;;11.75;7.90;;;;;;;4.68;44.37;101983.28;4182729;28;20064;-60
2022/03/01 01:20:29;;;;;;;19.27;9.63;;;;;;;4.73;44.36;101987.00;4166868;28;20041;-60
2022/03/01 01:22:42;;;;;;;13.85;8.43;;;;;;;4.77;43.92;101983.84;4167560;28;20045;-60
2022/03/01 01:24:45;;;;;;;12.82;8.18;;;;;;;4.72;43.60;101983.56;4169085;28;20075;-61
2022/03/01 01:26:49;;;;;;;15.70;8.95;;;;;;;4.71;43.92;101981.75;4173154;28;20044;-61
2022/03/01 01:28:52;;;;;;;13.95;8.30;;;;;;;4.71;44.26;101988.59;4182638;28;20049;-61
2022/03/01 01:30:55;;;;;;;12.45;8.68;;;;;;;4.67;44.60;101986.63;4170585;28;20053;-61
2022/03/01 01:32:58;;;;;;;16.10;8.95;;;;;;;4.64;44.25;101976.13;4165326;28;20411;-61
2022/03/01 01:35:01;;;;;;;15.20;8.85;;;;;;;4.64;43.97;101986.44;4195494;28;20048;-60
2022/03/01 01:37:04;;;;;;;15.15;8.63;;;;;;;4.61;43.73;101989.69;4166670;28;20046;-61
2022/03/01 01:39:08;;;;;;;16.08;8.60;;;;;;;4.59;43.36;101977.56;4182433;28;20045;-60
2022/03/01 01:41:11;;;;;;;15.80;9.30;;;;;;;4.54;44.23;101990.09;4177488;28;20128;-61
2022/03/01 01:43:14;;;;;;;15.88;8.45;;;;;;;4.52;44.22;101986.56;4167480;28;20044;-60
2022/03/01 01:45:16;;;;;;;13.70;8.32;;;;;;;4.51;44.88;101995.97;4166296;28;20507;-61
2022/03/01 01:47:21;;;;;;;18.52;8.73;;;;;;;4.45;44.11;101998.13;4168416;28;20049;-61
2022/03/01 01:49:24;;;;;;;14.20;9.18;;;;;;;4.43;44.81;101999.75;4182443;28;20036;-61
2022/03/01 01:51:27;;;;;;;16.13;8.75;;;;;;;4.40;44.42;102003.81;4167070;28;20041;-61
2022/03/01 01:53:29;;;;;;;16.17;9.82;;;;;;;4.51;43.89;102002.78;4181222;28;20057;-61
2022/03/01 01:55:33;;;;;;;14.77;8.85;;;;;;;4.48;43.90;101994.88;4182161;28;20588;-61
2022/03/01 01:57:36;;;;;;;14.23;9.17;;;;;;;4.41;43.87;101998.75;4176697;28;20046;-61
2022/03/01 01:59:41;;;;;;;17.20;10.07;;;;;;;4.47;43.90;101999.16;4165676;28;20096;-60
2022/03/01 02:01:44;;;;;;;16.58;9.50;;;;;;;4.36;43.83;101989.84;4174322;28;20045;-60
2022/03/01 02:03:46;;;;;;;16.90;10.02;;;;;;;4.30;44.54;101994.59;4179458;28;20124;-61
2022/03/01 02:05:49;;;;;;;16.15;9.32;;;;;;;4.27;44.56;101990.13;4165388;28;20496;-60
2022/03/01 02:07:52;;;;;;;15.10;9.00;;;;;;;4.24;44.86;101999.38;4170932;28;20403;-60
2022/03/01 02:09:55;;;;;;;17.67;9.32;;;;;;;4.16;45.39;101997.19;4181948;28;20498;-60
2022/03/01 02:11:59;;;;;;;15.00;9.25;;;;;;;4.11;45.54;101995.97;4171209;28;20038;-61
2022/03/01 02:14:03;;;;;;;13.52;8.90;;;;;;;4.02;45.56;101997.97;4170100;28;20043;-60
2022/03/01 02:16:05;;;;;;;14.93;9.63;;;;;;;3.95;45.50;102004.38;4180124;28;20343;-60
2022/03/01 02:18:08;;;;;;;16.38;9.27;;;;;;;3.91;45.80;101997.22;4181493;28;20499;-60
2022/03/01 02:20:16;;;;;;;18.27;10.23;;;;;;;3.93;45.20;101995.66;4177218;28;20045;-60
2022/03/01 02:22:19;;;;;;;15.45;8.68;;;;;;;3.93;45.55;101992.19;4171443;28;20052;-61
2022/03/01 02:24:23;;;;;;;13.95;9.20;;;;;;;3.93;45.35;101992.19;4172944;28;20037;-61
2022/03/01 02:26:26;;;;;;;15.30;8.15;;;;;;;3.95;45.33;101995.78;4165109;28;20413;-61
2022/03/01 02:28:29;;;;;;;16.40;9.38;;;;;;;3.99;45.24;101992.59;4165379;28;20041;-61
2022/03/01 02:30:32;;;;;;;14.80;9.20;;;;;;;3.99;45.40;101990.03;4170380;28;20388;-61
2022/03/01 02:32:36;;;;;;;17.77;10.15;;;;;;;3.99;45.23;101992.59;4171949;28;20041;-61
2022/03/01 02:34:38;;;;;;;17.02;9.60;;;;;;;3.94;45.59;101994.88;4179664;28;20118;-60
2022/03/01 02:36:42;;;;;;;16.95;9.40;;;;;;;3.93;45.79;101989.63;4181621;28;20040;-60
2022/03/01 02:38:45;;;;;;;14.67;8.70;;;;;;;3.88;46.11;101983.28;4180863;28;20049;-60
2022/03/01 02:40:48;;;;;;;16.38;8.65;;;;;;;3.81;46.02;101982.88;4179281;28;20502;-60
2022/03/01 02:42:50;;;;;;;18.52;9.65;;;;;;;3.78;45.76;101986.91;4164166;28;20107;-60
2022/03/01 02:44:53;;;;;;;18.60;9.73;;;;;;;3.75;45.88;101981.56;4175790;28;20491;-61
2022/03/01 02:46:56;;;;;;;15.18;9.82;;;;;;;3.71;46.52;101980.50;4175137;28;20494;-61
2022/03/01 02:48:59;;;;;;;18.05;11.10;;;;;;;3.66;46.41;101984.44;4165099;28;20042;-61
2022/03/01 02:51:02;;;;;;;16.33;9.63;;;;;;;3.58;46.77;101975.34;4172689;28;20053;-61
2022/03/01 02:53:07;;;;;;;13.60;8.73;;;;;;;3.59;47.04;101975.44;4180632;28;20130;-61
2022/03/01 02:55:13;;;;;;;18.33;9.93;;;;;;;3.59;46.70;101974.53;4167170;28;20116;-61
2022/03/01 02:57:16;;;;;;;16.85;9.52;;;;;;;3.59;46.60;101969.38;4165051;28;20128;-60
2022/03/01 02:59:19;;;;;;;16.83;10.30;;;;;;;3.58;46.92;101970.19;4180010;28;20036;-61
2022/03/01 03:01:22;;;;;;;14.40;9.25;;;;;;;3.51;47.02;101975.72;4176979;28;20120;-61
2022/03/01 03:03:25;;;;;;;16.85;9.00;;;;;;;3.42;47.29;101981.13;4164808;28;20037;-60
2022/03/01 03:05:28;;;;;;;16.58;9.68;;;;;;;3.41;47.15;101969.91;4180170;28;20556;-61
2022/03/01 03:07:31;;;;;;;16.40;9.38;;;;;;;3.43;47.34;101976.06;4178444;28;20053;-60
2022/03/01 03:09:35;;;;;;;17.70;9.50;;;;;;;3.42;47.45;101971.72;4163251;28;20111;-61
2022/03/01 03:11:38;;;;;;;18.92;10.07;;;;;;;3.38;47.52;101972.28;4175028;28;20560;-60
2022/03/01 03:13:40;;;;;;;15.05;9.23;;;;;;;3.36;47.93;101968.75;4178373;28;20048;-60
2022/03/01 03:15:43;;;;;;;20.83;10.07;;;;;;;3.38;47.85;101968.84;4164473;28;20046;-61
2022/03/01 03:17:46;;;;;;;15.77;9.50;;;;;;;3.36;47.36;101976.44;4165725;28;20251;-60
2022/03/01 03:19:49;;;;;;;16.52;10.00;;;;;;;3.34;48.00;101967.72;4179297;28;20060;-60
2022/03/01 03:21:52;;;;;;;17.60;9.57;;;;;;;3.38;48.04;101974.84;4179609;28;20119;-61
2022/03/01 03:23:54;;;;;;;16.85;10.07;;;;;;;3.31;47.84;101978.72;4179313;28;20464;-61
2022/03/01 03:25:58;;;;;;;17.95;10.80;;;;;;;3.36;47.61;101981.59;4180812;28;20037;-61
2022/03/01 03:28:01;;;;;;;17.85;10.27;;;;;;;3.38;47.90;101971.41;4180073;28;20044;-61
2022/03/01 03:30:05;;;;;;;15.38;8.90;;;;;;;3.39;47.22;101975.75;4172121;28;20064;-60
2022/03/01 03:32:08;;;;;;;18.10;10.18;;;;;;;3.33;47.11;101971.09;4174331;28;20044;-60
2022/03/01 03:34:11;;;;;;;16.73;9.65;;;;;;;3.29;47.15;101972.56;4175792;28;20048;-61
2022/03/01 03:36:15;;;;;;;17.75;10.38;;;;;;;3.21;48.23;101971.13;4169525;28;20068;-61
2022/03/01 03:38:18;;;;;;;17.95;10.43;;;;;;;3.21;47.77;101965.09;4172113;28;20033;-61
2022/03/01 03:40:21;;;;;;;15.15;9.55;;;;;;;3.21;48.12;101975.38;4162930;28;20080;-61
2022/03/01 03:42:28;;;;;;;19.10;10.73;;;;;;;3.18;47.69;101973.50;4174106;28;20044;-61
2022/03/01 03:44:30;;;;;;;17.30;10.43;;;;;;;3.13;48.68;101977.44;4195618;28;20068;-61
2022/03/01 03:46:34;;;;;;;19.85;10.30;;;;;;;3.16;48.81;101971.63;4164785;28;20088;-61
2022/03/01 03:48:37;;;;;;;16.23;9.60;;;;;;;3.14;49.48;101974.97;4177617;28;20045;-60
2022/03/01 03:50:39;;;;;;;18.25;10.10;;;;;;;3.13;49.72;101970.59;4164019;28;20053;-61
2022/03/01 03:52:42;;;;;;;20.48;10.55;;;;;;;3.11;50.05;101959.34;4175648;28;20052;-60
2022/03/01 03:54:45;;;;;;;18.75;11.23;;;;;;;3.07;49.89;101966.75;4195217;28;20484;-60
2022/03/01 03:56:48;;;;;;;19.70;10.20;;;;;;;3.07;50.50;101959.91;4179354;28;20049;-60
2022/03/01 03:58:55;;;;;;;16.02;9.93;;;;;;;3.01;50.92;101964.66;4167735;28;20497;-61
2022/03/01 04:00:58;;;;;;;18.85;10.15;;;;;;;2.96;50.97;101968.56;4180451;28;20056;-60
2022/03/01 04:03:01;;;;;;;15.20;9.27;;;;;;;2.92;50.78;101969.13;4178034;28;20049;-60
2022/03/01 04:05:05;;;;;;;19.30;10.30;;;;;;;2.90;51.35;101960.44;4181978;28;20553;-60
2022/03/01 04:07:09;;;;;;;17.83;10.35;;;;;;;2.89;51.08;101966.34;4195604;28;20052;-60
2022/03/01 04:09:12;;;;;;;17.63;9.25;;;;;;;2.83;50.92;101968.50;4173602;28;20502;-60
2022/03/01 04:11:14;;;;;;;17.70;11.07;;;;;;;2.80;51.00;101969.16;4165299;28;20046;-60
2022/03/01 04:13:17;;;;;;;16.48;9.98;;;;;;;2.79;50.98;101967.41;4172444;28;20045;-60
2022/03/01 04:15:21;;;;;;;19.48;10.43;;;;;;;2.72;51.48;101958.38;4167189;28;20057;-60
2022/03/01 04:17:24;;;;;;;18.83;10.32;;;;;;;2.62;51.51;101966.19;4180419;28;20041;-60
2022/03/01 04:19:26;;;;;;;17.35;9.63;;;;;;;2.58;51.20;101964.19;4171747;28;20099;-60
2022/03/01 04:21:29;;;;;;;16.27;10.02;;;;;;;2.51;51.25;101969.69;4166890;28;20384;-60
2022/03/01 04:23:33;;;;;;;17.15;9.95;;;;;;;2.49;51.14;101963.56;4179651;28;20049;-60
2022/03/01 04:25:35;;;;;;;19.85;11.15;;;;;;;2.47;51.31;101960.88;4173362;28;20037;-61
2022/03/01 04:27:38;;;;;;;22.58;11.57;;;;;;;2.45;50.87;101959.84;4165713;28;20111;-60
2022/03/01 04:29:41;;;;;;;17.52;10.20;;;;;;;2.47;50.82;101950.63;4163363;28;20420;-60
2022/03/01 04:31:45;;;;;;;20.15;10.20;;;;;;;2.44;50.95;101956.41;4181859;28;20049;-62
2022/03/01 04:33:48;;;;;;;19.20;9.98;;;;;;;2.40;50.65;101954.41;4182731;28;20510;-60
2022/03/01 04:35:51;;;;;;;16.27;9.70;;;;;;;2.41;50.60;101956.19;4178758;28;20091;-61
2022/03/01 04:37:54;;;;;;;15.85;10.13;;;;;;;2.38;50.97;101952.50;4167154;28;20061;-61
2022/03/01 04:39:56;;;;;;;16.58;10.32;;;;;;;2.42;50.05;101951.94;4178734;28;20091;-60
2022/03/01 04:41:59;;;;;;;17.98;11.10;;;;;;;2.47;50.61;101955.75;4175806;28;20041;-61
2022/03/01 04:44:02;;;;;;;16.33;9.68;;;;;;;2.44;50.20;101951.28;4182105;28;20554;-61
2022/03/01 04:46:08;;;;;;;20.90;10.73;;;;;;;2.44;49.91;101950.41;4176164;28;20045;-61
2022/03/01 04:48:12;;;;;;;17.67;9.90;;;;;;;2.47;50.54;101949.69;4173655;28;20512;-61
2022/03/01 04:50:15;;;;;;;18.83;10.82;;;;;;;2.42;50.78;101945.16;4172704;28;20037;-61
2022/03/01 04:52:18;;;;;;;16.90;10.65;;;;;;;2.41;50.52;101940.78;4177508;28;20049;-61
2022/03/01 04:54:21;;;;;;;16.20;10.30;;;;;;;2.41;50.81;101945.94;4186855;28;20372;-61
2022/03/01 04:56:24;;;;;;;17.08;10.73;;;;;;;2.41;51.35;101935.66;4182008;28;20086;-60
2022/03/01 04:58:27;;;;;;;21.88;10.55;;;;;;;2.40;51.32;101933.88;4178403;28;20048;-61
2022/03/01 05:00:30;;;;;;;20.00;10.75;;;;;;;2.40;50.82;101936.44;4183428;28;20068;-60
2022/03/01 05:02:33;;;;;;;21.88;10.93;;;;;;;2.35;50.63;101934.31;4164553;28;20523;-61
2022/03/01 05:04:37;;;;;;;17.20;9.27;;;;;;;2.27;51.37;101937.22;4173012;28;20084;-60
2022/03/01 05:06:40;;;;;;;18.47;10.63;;;;;;;2.42;50.75;101939.13;4166868;28;20042;-60
2022/03/01 05:08:42;;;;;;;16.83;10.45;;;;;;;2.27;51.18;101936.34;4176613;28;20296;-60
2022/03/01 05:10:45;;;;;;;17.25;9.70;;;;;;;2.22;51.86;101942.81;4165265;28;20056;-60
2022/03/01 05:12:49;;;;;;;18.88;11.00;;;;;;;2.18;51.13;101944.28;4166844;28;20057;-60
2022/03/01 05:14:52;;;;;;;18.42;11.07;;;;;;;2.19;50.51;101946.06;4167767;28;20045;-60
2022/03/01 05:16:54;;;;;;;21.38;10.43;;;;;;;2.24;50.12;101954.97;4166158;28;20349;-59
2022/03/01 05:18:57;;;;;;;17.92;10.65;;;;;;;2.32;49.77;101952.06;4166398;28;20553;-60
2022/03/01 05:21:01;;;;;;;19.63;11.50;;;;;;;2.34;49.36;101953.09;4172918;28;20052;-60
2022/03/01 05:23:04;;;;;;;16.37;10.03;;;;;;;2.33;49.12;101952.19;4172516;28;20045;-60
2022/03/01 05:25:09;;;;;;;16.10;9.60;;;;;;;2.34;49.20;101951.41;4173192;28;20287;-60
2022/03/01 05:27:12;;;;;;;20.33;10.27;;;;;;;2.40;48.87;101959.53;4194965;28;20518;-60
2022/03/01 05:29:15;;;;;;;16.60;10.50;;;;;;;2.37;48.53;101963.56;4173998;28;20068;-60
2022/03/01 05:31:19;;;;;;;17.02;9.27;;;;;;;2.33;48.64;101961.56;4182655;28;20103;-60
2022/03/01 05:33:22;;;;;;;15.90;9.15;;;;;;;2.37;48.32;101954.19;4180566;28;20477;-61
2022/03/01 05:35:27;;;;;;;18.85;10.15;;;;;;;2.35;48.20;101955.75;4171584;28;20094;-61
2022/03/01 05:37:32;;;;;;;16.67;9.90;;;;;;;2.37;48.59;101964.47;4173583;28;20038;-60
2022/03/01 05:39:35;;;;;;;16.77;10.77;;;;;;;2.37;48.71;101964.47;4179032;28;20110;-60
2022/03/01 05:41:38;;;;;;;15.52;10.10;;;;;;;2.33;48.90;101967.56;4168843;28;20095;-60
2022/03/01 05:43:40;;;;;;;21.13;10.52;;;;;;;2.37;48.93;101973.84;4173434;28;20099;-60
2022/03/01 05:45:43;;;;;;;15.75;9.63;;;;;;;2.35;49.34;101977.94;4182088;28;20045;-61
2022/03/01 05:47:46;;;;;;;19.38;10.82;;;;;;;2.34;49.12;101974.50;4167178;28;20053;-60
2022/03/01 05:49:49;;;;;;;17.23;10.32;;;;;;;2.34;48.86;101973.63;4172014;28;20096;-61
2022/03/01 05:51:52;;;;;;;16.13;10.70;;;;;;;2.33;48.89;101975.28;4171216;28;20455;-60
2022/03/01 05:53:56;;;;;;;16.95;10.60;;;;;;;2.35;48.75;101980.50;4164599;28;20398;-60
2022/03/01 05:55:58;;;;;;;14.85;9.70;;;;;;;2.36;48.79;101982.31;4183177;28;20776;-61
2022/03/01 05:58:01;;;;;;;17.60;10.73;;;;;;;2.36;48.33;101985.75;4178490;28;20040;-60
2022/03/01 06:00:06;;;;;;;19.95;11.18;;;;;;;2.36;49.02;101982.31;4181315;28;20114;-61
2022/03/01 06:02:15;;;;;;;17.33;10.48;;;;;;;2.36;49.10;101983.19;4167441;28;20538;-60
2022/03/01 06:04:18;;;;;;;16.15;9.93;;;;;;;2.33;48.98;101988.09;4167279;28;20041;-61
2022/03/01 06:06:21;;;;;;;17.27;10.60;;;;;;;2.23;49.57;101988.22;4165196;28;20049;-60
2022/03/01 06:08:24;;;;;;;20.13;11.55;;;;;;;2.15;48.77;101990.25;4165303;28;20098;-61
2022/03/01 06:10:29;;;;;;;20.77;10.48;;;;;;;2.18;49.25;101987.00;4163977;28;20068;-61
2022/03/01 06:12:31;;;;;;;20.50;11.77;;;;;;;2.19;48.59;102001.59;4164332;28;20087;-60
2022/03/01 06:14:34;;;;;;;14.00;9.13;;;;;;;2.21;49.21;101988.13;4165204;28;20100;-61
2022/03/01 06:16:37;;;;;;;16.52;10.95;;;;;;;2.14;49.16;101987.56;4172871;28;20044;-61
2022/03/01 06:18:41;;;;;;;19.48;10.88;;;;;;;2.17;49.11;101991.22;4178973;28;20047;-60
2022/03/01 06:20:45;;;;;;;21.58;12.63;;;;;;;2.20;49.66;101996.59;4176435;28;20033;-61
2022/03/01 06:22:47;;;;;;;19.83;10.63;;;;;;;2.19;50.07;101987.13;4164510;28;20045;-61
2022/03/01 06:24:55;;;;;;;18.35;10.27;;;;;;;2.21;49.33;101988.13;4167413;28;20099;-60
2022/03/01 06:27:00;;;;;;;18.85;9.38;;;;;;;2.19;49.61;101999.94;4179502;28;20088;-60
2022/03/01 06:29:04;;;;;;;17.02;9.27;;;;;;;2.20;48.84;101998.25;4166814;28;20049;-60
2022/03/01 06:31:07;;;;;;;18.13;9.98;;;;;;;2.20;49.65;102000.84;4164961;28;20045;-60
2022/03/01 06:33:10;;;;;;;18.58;10.15;;;;;;;2.28;49.45;101994.59;4167564;28;20098;-60
2022/03/01 06:35:13;;;;;;;20.48;11.60;;;;;;;2.21;49.72;101997.50;4180938;28;20044;-60
2022/03/01 06:37:20;;;;;;;18.70;11.15;;;;;;;2.15;49.33;101997.06;4179743;28;20045;-61
2022/03/01 06:39:23;;;;;;;17.70;10.00;;;;;;;2.21;49.35;101998.38;4170844;28;20407;-61
2022/03/01 06:41:26;;;;;;;17.42;9.85;;;;;;;2.15;49.35;101999.63;4163480;28;20061;-60
2022/03/01 06:43:30;;;;;;;17.45;9.80;;;;;;;2.13;49.70;102004.59;4164691;28;20402;-60
2022/03/01 06:45:33;;;;;;;17.93;10.70;;;;;;;2.23;51.14;101995.91;4180578;28;20063;-60
2022/03/01 06:47:36;;;;;;;17.60;10.50;;;;;;;2.35;50.99;102001.97;4170388;28;20041;-60
2022/03/01 06:49:39;;;;;;;15.88;9.82;;;;;;;2.48;50.02;102003.72;4179825;28;20107;-60
2022/03/01 06:51:42;;;;;;;16.77;10.25;;;;;;;2.54;50.51;102003.25;4179746;28;20102;-60
2022/03/01 06:53:44;;;;;;;18.48;10.07;;;;;;;2.42;50.40;102006.75;4175841;28;20064;-60
2022/03/01 06:55:47;;;;;;;18.58;9.88;;;;;;;2.36;50.72;102008.84;4176400;28;20045;-60
2022/03/01 06:57:53;;;;;;;30.02;17.20;;;;;;;2.38;50.28;102016.66;4180973;28;20509;-60
2022/03/01 06:59:59;;;;;;;25.55;16.05;;;;;;;2.18;50.75;102015.22;4180237;28;20041;-61
2022/03/01 07:02:03;;;;;;;19.97;12.17;;;;;;;2.01;51.42;102021.69;4178634;28;20079;-61
2022/03/01 07:04:07;;;;;;;24.33;14.20;;;;;;;2.15;51.80;102017.59;4176571;28;20045;-61
2022/03/01 07:06:11;;;;;;;21.13;13.07;;;;;;;2.30;51.90;102017.81;4168053;28;20037;-60
2022/03/01 07:08:14;;;;;;;20.63;12.05;;;;;;;2.41;51.34;102014.31;4170194;28;20045;-60
2022/03/01 07:10:17;;;;;;;20.60;12.30;;;;;;;2.38;51.36;102011.53;4170361;28;20565;-60
2022/03/01 07:12:19;;;;;;;21.98;13.18;;;;;;;2.44;52.12;102018.00;4164656;28;20076;-60
2022/03/01 07:14:22;;;;;;;25.10;13.65;;;;;;;2.48;51.80;102019.09;4166555;28;20053;-60
2022/03/01 07:16:26;;;;;;;20.35;13.30;;;;;;;2.44;51.20;102018.00;4165228;28;20103;-60
2022/03/01 07:18:29;;;;;;;25.25;12.90;;;;;;;2.47;51.89;102012.22;4176605;28;20422;-60
2022/03/01 07:20:32;;;;;;;17.65;11.50;;;;;;;2.55;51.77;102017.91;4179895;28;20045;-60
2022/03/01 07:22:35;;;;;;;21.58;11.40;;;;;;;2.63;51.77;102019.34;4171680;28;20092;-60
2022/03/01 07:24:38;;;;;;;23.02;12.80;;;;;;;2.66;50.90;102021.22;4171569;28;20049;-60
2022/03/01 07:26:41;;;;;;;22.95;12.48;;;;;;;2.74;50.57;102017.53;4174841;28;20041;-60
2022/03/01 07:28:43;;;;;;;23.02;11.52;;;;;;;2.90;48.74;102020.38;4174263;28;20442;-60
2022/03/01 07:30:46;;;;;;;18.02;10.52;;;;;;;3.11;47.94;102021.03;4177460;28;20033;-60
2022/03/01 07:32:52;;;;;;;21.20;10.68;;;;;;;3.13;46.57;102014.28;4175965;28;20106;-60
2022/03/01 07:34:55;;;;;;;19.02;11.93;;;;;;;2.99;47.22;102033.00;4172410;28;20411;-60
2022/03/01 07:36:59;;;;;;;20.95;12.00;;;;;;;2.91;49.15;102029.00;4179118;28;20041;-60
2022/03/01 07:39:02;;;;;;;19.80;11.77;;;;;;;2.94;49.14;102021.50;4174892;28;20041;-63
2022/03/01 07:41:05;;;;;;;23.38;13.10;;;;;;;2.94;50.61;102021.50;4176181;28;20033;-60
2022/03/01 07:43:08;;;;;;;23.50;13.20;;;;;;;2.99;50.27;102029.53;4177212;28;20415;-60
2022/03/01 07:45:11;;;;;;;22.70;13.52;;;;;;;3.01;50.96;102021.16;4178209;28;20068;-60
2022/03/01 07:47:14;;;;;;;20.50;13.50;;;;;;;3.06;50.27;102029.19;4176490;28;20041;-60
2022/03/01 07:49:18;;;;;;;23.73;12.13;;;;;;;3.16;49.72;102033.31;4173773;28;20044;-60
2022/03/01 07:51:21;;;;;;;24.95;13.68;;;;;;;3.15;49.75;102029.81;4178063;28;20119;-61
2022/03/01 07:53:25;;;;;;;22.45;13.15;;;;;;;3.30;48.96;102035.13;4177186;28;20045;-60
2022/03/01 07:55:29;;;;;;;26.98;12.35;;;;;;;3.38;47.55;102026.28;4177687;28;20033;-60
2022/03/01 07:57:31;;;;;;;22.65;13.73;;;;;;;3.33;48.22;102032.78;4180168;28;20056;-60
2022/03/01 07:59:34;;;;;;;23.27;12.60;;;;;;;3.32;47.91;102041.28;4180248;28;20056;-61
2022/03/01 08:01:37;;;;;;;23.33;12.65;;;;;;;3.40;48.02;102040.13;4179430;28;20036;-60
2022/03/01 08:03:40;;;;;;;21.15;10.73;;;;;;;3.35;47.83;102030.31;4178170;28;20040;-60
2022/03/01 08:05:45;;;;;;;23.77;13.48;;;;;;;3.41;47.71;102036.75;4179561;28;20048;-60
2022/03/01 08:07:47;;;;;;;18.60;10.63;;;;;;;3.36;47.65;102038.16;4172258;28;20052;-61
2022/03/01 08:09:50;;;;;;;28.00;11.43;;;;;;;3.42;47.80;102035.09;4177646;28;20086;-60
2022/03/01 08:11:53;;;;;;;24.45;11.85;;;;;;;3.41;47.22;102035.88;4182016;28;20049;-60
2022/03/01 08:14:01;;;;;;;19.67;10.13;;;;;;;3.42;47.03;102038.56;4174106;28;20071;-60
2022/03/01 08:16:05;;;;;;;21.73;11.20;;;;;;;3.64;46.92;102033.19;4181556;28;20513;-60
2022/03/01 08:18:08;;;;;;;15.63;9.45;;;;;;;3.63;46.84;102033.97;4175103;28;20053;-60
2022/03/01 08:20:11;;;;;;;16.33;9.73;;;;;;;3.64;45.94;102025.47;4175080;28;20079;-60
2022/03/01 08:22:16;;;;;;;16.23;9.35;;;;;;;3.62;45.65;102034.78;4182352;28;20514;-61
2022/03/01 08:24:19;;;;;;;17.50;10.63;;;;;;;3.90;45.28;102033.16;4176128;28;20049;-60
2022/03/01 08:26:22;;;;;;;19.10;10.75;;;;;;;3.94;46.29;102037.72;4182318;28;20127;-60
2022/03/01 08:28:25;;;;;;;22.02;10.68;;;;;;;3.87;44.59;102022.66;4178953;28;20493;-61
2022/03/01 08:30:28;;;;;;;17.20;9.43;;;;;;;3.98;44.09;102024.28;4179183;28;20037;-60
2022/03/01 08:32:34;;;;;;;20.50;12.48;;;;;;;4.13;43.80;102029.53;4174643;28;20053;-60
2022/03/01 08:34:36;;;;;;;15.10;9.60;;;;;;;4.04;44.47;102019.53;4190477;28;20424;-60
2022/03/01 08:36:40;;;;;;;17.00;9.88;;;;;;;4.07;44.34;102021.41;4170345;28;20052;-61
2022/03/01 08:38:44;;;;;;;15.05;9.40;;;;;;;4.08;45.04;102026.66;4182705;28;20049;-61
2022/03/01 08:40:46;;;;;;;22.30;11.90;;;;;;;4.38;43.92;102021.75;4182743;28;20441;-60
2022/03/01 08:42:49;;;;;;;23.25;11.60;;;;;;;4.43;42.58;102022.91;4180691;28;20053;-61
2022/03/01 08:44:52;;;;;;;16.45;10.23;;;;;;;4.35;42.61;102024.09;4166503;28;20095;-60
2022/03/01 08:46:55;;;;;;;16.63;9.88;;;;;;;4.30;43.07;102028.06;4176109;28;20041;-60
2022/03/01 08:48:58;;;;;;;14.65;8.75;;;;;;;4.41;50.34;102029.66;4182891;28;20060;-60
2022/03/01 08:51:01;;;;;;;14.77;9.05;;;;;;;4.41;45.45;102029.66;4181096;28;20045;-60
2022/03/01 08:53:05;;;;;;;15.23;8.80;;;;;;;4.42;45.29;102031.41;4165602;28;20099;-60
2022/03/01 08:55:10;;;;;;;15.48;10.00;;;;;;;4.38;43.75;102037.19;4170337;28;20099;-60
2022/03/01 08:57:14;;;;;;;18.30;10.43;;;;;;;4.63;42.52;102037.06;4168794;28;20040;-65
2022/03/01 08:59:17;;;;;;;12.60;8.13;;;;;;;4.53;43.36;102035.59;4170848;28;20461;-61
2022/03/01 09:01:20;;;;;;;15.85;10.25;;;;;;;4.53;44.14;102040.75;4182507;28;20327;-61
2022/03/01 09:03:25;;;;;;;16.10;9.05;;;;;;;5.00;40.64;102029.06;4178663;28;20135;-60
2022/03/01 09:05:46;;;;;;;16.55;10.07;;;;;;;4.72;41.61;102040.22;4173606;28;20037;-60
2022/03/01 09:07:49;;;;;;;13.75;7.95;;;;;;;4.69;40.99;102031.44;4182314;28;20170;-60
2022/03/01 09:09:52;;;;;;;16.38;9.57;;;;;;;4.69;41.61;102032.31;4181040;28;20059;-60
2022/03/01 09:11:56;;;;;;;12.32;8.13;;;;;;;4.78;41.26;102031.13;4178819;28;20560;-61
2022/03/01 09:13:59;;;;;;;16.33;9.07;;;;;;;5.13;39.71;102027.28;4165745;28;20454;-60
2022/03/01 09:16:02;;;;;;;17.98;9.90;;;;;;;4.98;40.21;102030.69;4172667;28;20037;-60
2022/03/01 09:18:06;;;;;;;14.27;8.93;;;;;;;5.18;39.06;102034.50;4182281;28;20517;-61
2022/03/01 09:20:10;;;;;;;16.07;9.70;;;;;;;5.17;39.13;102031.78;4180630;28;20074;-61
2022/03/01 09:22:13;;;;;;;19.08;10.00;;;;;;;5.03;40.01;102034.41;4167149;28;20716;-61
2022/03/01 09:24:16;;;;;;;18.05;10.43;;;;;;;5.01;40.29;102025.72;4182407;28;20037;-61
2022/03/01 09:26:19;;;;;;;16.08;10.40;;;;;;;5.36;39.30;102026.06;4175526;28;20033;-61
2022/03/01 09:28:23;;;;;;;18.52;10.75;;;;;;;5.24;39.73;102016.81;4177990;28;20045;-63
2022/03/01 09:30:26;;;;;;;18.25;10.18;;;;;;;5.52;38.83;102015.00;4181324;28;20048;-61